createdAt,value
2022-12-03T00:00:35.741Z,13.68
2022-12-03T00:03:02.550Z,11.73
2022-12-03T00:05:29.317Z,12.23
2022-12-03T00:07:56.004Z,11.68
2022-12-03T00:10:22.938Z,11.95
2022-12-03T00:12:49.483Z,12.32
2022-12-03T00:15:16.111Z,12.25
2022-12-03T00:17:42.840Z,13.10
2022-12-03T00:20:11.638Z,11.82
2022-12-03T00:22:38.213Z,12.93
2022-12-03T00:25:05.261Z,12.00
2022-12-03T00:27:32.986Z,12.50
2022-12-03T00:29:59.520Z,11.35
2022-12-03T00:32:26.056Z,10.00
2022-12-03T00:34:53.147Z,9.57
2022-12-03T00:37:20.010Z,12.45
2022-12-03T00:39:47.564Z,11.85
2022-12-03T00:42:16.617Z,13.35
2022-12-03T00:44:43.337Z,12.65
2022-12-03T00:47:10.079Z,12.07
2022-12-03T00:49:36.839Z,12.23
2022-12-03T00:52:03.610Z,13.82
2022-12-03T00:54:32.019Z,12.25
2022-12-03T00:56:59.309Z,11.85
2022-12-03T00:59:25.971Z,12.05
2022-12-03T01:01:52.750Z,12.82
2022-12-03T01:04:19.603Z,11.63
2022-12-03T01:06:46.284Z,13.40
2022-12-03T01:09:12.896Z,11.65
2022-12-03T01:11:39.650Z,12.80
2022-12-03T01:14:10.278Z,13.75
2022-12-03T01:16:37.196Z,11.57
2022-12-03T01:19:05.640Z,12.45
2022-12-03T01:21:33.209Z,13.30
2022-12-03T01:23:59.951Z,12.25
2022-12-03T01:26:26.716Z,13.15
2022-12-03T01:28:53.682Z,14.30
2022-12-03T01:31:39.311Z,10.85
2022-12-03T01:34:06.359Z,12.55
2022-12-03T01:36:34.523Z,14.00
2022-12-03T01:39:03.819Z,13.15
2022-12-03T01:41:31.840Z,12.85
2022-12-03T01:44:00.030Z,13.00
2022-12-03T01:46:40.999Z,14.60
2022-12-03T01:49:17.413Z,14.23
2022-12-03T01:51:44.705Z,14.80
2022-12-03T01:54:21.117Z,14.15
2022-12-03T01:56:48.709Z,15.68
2022-12-03T01:59:18.796Z,15.30
2022-12-03T02:01:46.127Z,12.75
2022-12-03T02:04:14.817Z,17.10
2022-12-03T02:06:43.277Z,14.60
2022-12-03T02:09:12.324Z,13.73
2022-12-03T02:11:50.465Z,15.15
2022-12-03T02:14:20.944Z,14.20
2022-12-03T02:16:48.861Z,12.38
2022-12-03T02:19:26.758Z,13.25
2022-12-03T02:21:56.096Z,13.75
2022-12-03T02:24:36.581Z,15.68
2022-12-03T02:27:03.614Z,13.57
2022-12-03T02:29:30.314Z,12.52
2022-12-03T02:31:57.183Z,12.38
2022-12-03T02:34:43.612Z,12.13
2022-12-03T02:37:29.644Z,13.13
2022-12-03T02:39:59.838Z,12.52
2022-12-03T02:42:36.195Z,12.55
2022-12-03T02:45:06.015Z,12.93
2022-12-03T02:47:35.482Z,13.18
2022-12-03T02:50:03.289Z,11.70
2022-12-03T02:52:30.385Z,10.63
2022-12-03T02:54:57.352Z,12.27
2022-12-03T02:57:24.328Z,11.73
2022-12-03T02:59:51.181Z,12.73
2022-12-03T03:02:18.142Z,12.60
2022-12-03T03:04:44.986Z,12.52
2022-12-03T03:07:14.034Z,12.93
2022-12-03T03:09:40.846Z,12.40
2022-12-03T03:12:07.598Z,11.93
2022-12-03T03:14:34.603Z,10.60
2022-12-03T03:17:01.432Z,12.30
2022-12-03T03:19:29.369Z,11.15
2022-12-03T03:21:56.176Z,11.10
2022-12-03T03:24:23.378Z,12.10
2022-12-03T03:26:50.418Z,10.40
2022-12-03T03:29:18.001Z,10.20
2022-12-03T03:31:46.341Z,9.85
2022-12-03T03:34:14.263Z,11.73
2022-12-03T03:36:41.468Z,10.63
2022-12-03T03:39:08.420Z,11.30
2022-12-03T03:41:36.538Z,10.82
2022-12-03T03:44:06.198Z,12.27
2022-12-03T03:46:33.692Z,12.23
2022-12-03T03:49:00.849Z,12.63
2022-12-03T03:51:27.844Z,11.50
2022-12-03T03:53:54.816Z,11.73
2022-12-03T03:56:21.906Z,12.07
2022-12-03T03:58:48.795Z,11.40
2022-12-03T04:01:16.746Z,11.50
2022-12-03T04:03:43.486Z,10.90
2022-12-03T04:06:10.320Z,11.30
2022-12-03T04:08:36.956Z,11.40
2022-12-03T04:11:22.485Z,10.57
2022-12-03T04:13:49.089Z,12.50
2022-12-03T04:16:16.805Z,10.70
2022-12-03T04:18:43.509Z,11.80
2022-12-03T04:28:35.329Z,12.52
2022-12-03T04:31:22.135Z,13.88
2022-12-03T04:34:07.476Z,14.82
2022-12-03T04:36:34.043Z,13.07
2022-12-03T04:39:00.741Z,12.98
2022-12-03T04:41:27.536Z,12.13
2022-12-03T04:44:12.586Z,11.75
2022-12-03T04:46:39.233Z,11.95
2022-12-03T04:49:05.884Z,10.93
2022-12-03T04:51:32.638Z,12.27
2022-12-03T04:53:59.302Z,13.02
2022-12-03T04:56:26.034Z,13.60
2022-12-03T04:58:52.617Z,12.13
2022-12-03T05:01:19.395Z,12.48
2022-12-03T05:03:46.010Z,12.57
2022-12-03T05:06:12.844Z,12.82
2022-12-03T05:08:39.471Z,14.05
2022-12-03T05:11:06.332Z,12.55
2022-12-03T05:13:32.943Z,12.27
2022-12-03T05:15:59.605Z,13.68
2022-12-03T05:18:26.236Z,14.45
2022-12-03T05:20:53.676Z,15.52
2022-12-03T05:23:21.004Z,12.45
2022-12-03T05:25:47.792Z,13.70
2022-12-03T05:28:14.792Z,12.50
2022-12-03T05:30:41.570Z,13.82
2022-12-03T05:33:08.276Z,13.05
2022-12-03T05:35:34.964Z,15.73
2022-12-03T05:38:01.661Z,12.85
2022-12-03T05:40:28.723Z,14.05
2022-12-03T05:42:56.786Z,14.23
2022-12-03T05:45:30.817Z,12.85
2022-12-03T05:47:58.776Z,15.98
2022-12-03T05:50:28.413Z,16.52
2022-12-03T05:52:55.460Z,16.55
2022-12-03T05:55:24.240Z,15.48
2022-12-03T05:57:51.194Z,15.23
2022-12-03T06:00:24.235Z,16.02
2022-12-03T06:02:51.389Z,15.18
2022-12-03T06:05:21.659Z,17.40
2022-12-03T06:07:50.338Z,16.88
2022-12-03T06:10:20.835Z,15.82
2022-12-03T06:12:47.679Z,16.17
2022-12-03T06:15:15.195Z,16.23
2022-12-03T06:17:41.928Z,17.30
2022-12-03T06:20:10.751Z,15.45
2022-12-03T06:22:37.431Z,16.30
2022-12-03T06:25:06.934Z,16.15
2022-12-03T06:27:36.910Z,14.25
2022-12-03T06:30:06.273Z,17.13
2022-12-03T06:32:32.950Z,17.65
2022-12-03T06:34:59.540Z,16.33
2022-12-03T06:37:26.256Z,17.58
2022-12-03T06:39:52.888Z,16.50
2022-12-03T06:42:19.613Z,17.90
2022-12-03T06:44:46.208Z,16.27
2022-12-03T06:47:13.114Z,14.38
2022-12-03T06:49:39.852Z,14.32
2022-12-03T06:52:06.482Z,15.80
2022-12-03T06:54:33.432Z,17.40
2022-12-03T06:57:00.356Z,15.30
2022-12-03T06:59:27.009Z,13.85
2022-12-03T07:01:53.734Z,14.48
2022-12-03T07:04:20.573Z,16.55
2022-12-03T07:06:47.324Z,14.00
2022-12-03T07:09:16.451Z,15.73
2022-12-03T07:11:43.381Z,15.05
2022-12-03T07:14:11.531Z,15.20
2022-12-03T07:16:39.381Z,13.10
2022-12-03T07:19:06.899Z,12.68
2022-12-03T07:21:33.770Z,14.02
2022-12-03T07:24:00.608Z,14.77
2022-12-03T07:26:27.656Z,13.18
2022-12-03T07:28:54.187Z,14.85
2022-12-03T07:31:20.840Z,14.57
2022-12-03T07:33:47.674Z,15.18
2022-12-03T07:36:14.330Z,15.10
2022-12-03T07:38:40.945Z,16.20
2022-12-03T07:41:07.615Z,12.52
2022-12-03T07:43:35.362Z,16.15
2022-12-03T07:46:01.999Z,14.43
2022-12-03T07:48:30.698Z,14.95
2022-12-03T07:50:57.429Z,12.40
2022-12-03T07:53:24.252Z,12.85
2022-12-03T07:55:50.902Z,12.88
2022-12-03T07:58:17.498Z,11.90
2022-12-03T08:00:44.208Z,12.00
2022-12-03T08:03:10.895Z,13.75
2022-12-03T08:05:37.533Z,13.15
2022-12-03T08:08:04.349Z,14.98
2022-12-03T08:10:31.060Z,14.23
2022-12-03T08:12:59.617Z,13.93
2022-12-03T08:15:33.810Z,11.77
2022-12-03T08:18:13.375Z,10.63
2022-12-03T08:20:41.890Z,13.68
2022-12-03T08:23:15.754Z,11.27
2022-12-03T08:25:43.969Z,12.85
2022-12-03T08:28:19.014Z,13.15
2022-12-03T08:30:58.008Z,13.15
2022-12-03T08:33:33.716Z,14.15
2022-12-03T08:36:05.476Z,12.02
2022-12-03T08:38:32.110Z,11.75
2022-12-03T08:40:59.265Z,12.60
2022-12-03T08:43:28.460Z,14.38
2022-12-03T08:45:56.763Z,13.27
2022-12-03T08:48:34.752Z,14.00
2022-12-03T08:51:19.102Z,13.00
2022-12-03T08:53:50.022Z,13.82
2022-12-03T08:56:22.321Z,12.88
2022-12-03T08:58:55.845Z,12.55
2022-12-03T09:01:28.576Z,11.93
2022-12-03T09:03:56.291Z,12.57
2022-12-03T09:06:22.915Z,12.07
2022-12-03T09:08:49.513Z,12.18
2022-12-03T09:11:16.272Z,14.88
2022-12-03T09:13:43.533Z,12.02
2022-12-03T09:16:10.248Z,12.57
2022-12-03T09:18:36.983Z,14.30
2022-12-03T09:21:03.625Z,11.27
2022-12-03T09:23:30.244Z,13.15
2022-12-03T09:25:56.913Z,13.95
2022-12-03T09:28:23.677Z,13.50
2022-12-03T09:30:50.399Z,12.50
2022-12-03T09:33:17.066Z,16.58
2022-12-03T09:35:43.724Z,14.35
2022-12-03T09:38:10.987Z,13.77
2022-12-03T09:40:38.233Z,13.82
2022-12-03T09:43:05.119Z,13.75
2022-12-03T09:45:32.049Z,13.98
2022-12-03T09:48:01.953Z,15.90
2022-12-03T09:50:28.910Z,16.52
2022-12-03T09:52:59.295Z,13.73
2022-12-03T09:55:28.639Z,14.05
2022-12-03T09:57:57.121Z,17.02
2022-12-03T10:00:27.011Z,17.30
2022-12-03T10:02:58.422Z,16.88
2022-12-03T10:05:25.821Z,19.23
2022-12-03T10:07:53.387Z,19.60
2022-12-03T10:10:23.073Z,18.27
2022-12-03T10:12:51.771Z,18.20
2022-12-03T10:15:22.506Z,18.40
2022-12-03T10:17:52.235Z,16.75
2022-12-03T10:20:22.455Z,18.55
2022-12-03T10:22:49.445Z,17.08
2022-12-03T10:25:19.287Z,17.52
2022-12-03T10:27:59.245Z,16.88
2022-12-03T10:30:28.584Z,19.17
2022-12-03T10:32:58.781Z,15.73
2022-12-03T10:35:37.521Z,16.27
2022-12-03T10:38:19.464Z,15.07
2022-12-03T10:40:46.585Z,15.23
2022-12-03T10:43:19.216Z,14.32
2022-12-03T10:45:52.184Z,15.68
2022-12-03T10:48:26.341Z,13.73
2022-12-03T10:50:52.948Z,14.68
2022-12-03T10:53:27.429Z,15.10
2022-12-03T10:55:59.444Z,14.38
2022-12-03T10:58:29.379Z,14.85
2022-12-03T11:00:58.017Z,13.27
2022-12-03T11:03:27.398Z,13.63
2022-12-03T11:05:55.888Z,11.32
2022-12-03T11:08:24.330Z,13.70
2022-12-03T11:11:20.246Z,13.23
2022-12-03T11:13:46.886Z,12.52
2022-12-03T11:16:14.387Z,11.23
2022-12-03T11:18:41.392Z,9.82
2022-12-03T11:21:11.505Z,12.18
2022-12-03T11:23:46.086Z,12.18
2022-12-03T11:26:38.769Z,11.93
2022-12-03T11:29:14.455Z,11.48
2022-12-03T11:31:45.213Z,11.50
2022-12-03T11:34:17.940Z,11.82
2022-12-03T11:37:09.541Z,11.90
2022-12-03T11:39:47.913Z,12.40
2022-12-03T11:42:38.890Z,12.00
2022-12-03T11:45:05.439Z,11.68
2022-12-03T11:48:00.343Z,13.18
2022-12-03T11:50:42.320Z,12.75
2022-12-03T11:53:46.332Z,10.68
2022-12-03T11:56:27.911Z,12.15
2022-12-03T11:59:03.557Z,14.95
2022-12-03T12:01:39.484Z,15.05
2022-12-03T12:04:08.454Z,12.77
2022-12-03T12:06:43.926Z,12.77
2022-12-03T12:09:10.778Z,13.02
2022-12-03T12:11:41.505Z,13.02
2022-12-03T12:14:11.375Z,13.45
2022-12-03T12:16:51.317Z,12.45
2022-12-03T12:19:42.168Z,13.30
2022-12-03T12:22:30.285Z,11.40
2022-12-03T12:25:02.505Z,12.90
2022-12-03T12:27:45.582Z,14.40
2022-12-03T12:30:17.741Z,14.07
2022-12-03T12:32:47.639Z,16.27
2022-12-03T12:35:26.063Z,13.35
2022-12-03T12:37:59.733Z,14.20
2022-12-03T12:40:31.942Z,12.20
2022-12-03T12:43:05.334Z,13.93
2022-12-03T12:45:39.728Z,14.40
2022-12-03T12:48:16.956Z,17.08
2022-12-03T12:50:48.605Z,13.02
2022-12-03T12:53:35.371Z,16.30
2022-12-03T12:56:11.504Z,15.73
2022-12-03T12:58:38.194Z,16.23
2022-12-03T13:01:11.446Z,15.23
2022-12-03T13:03:39.723Z,18.88
2022-12-03T13:06:06.601Z,17.13
2022-12-03T13:08:42.824Z,17.65
2022-12-03T13:11:24.719Z,16.23
2022-12-03T13:13:52.055Z,18.08
2022-12-03T13:16:26.626Z,19.42
2022-12-03T13:19:01.314Z,17.83
2022-12-03T13:21:38.729Z,17.05
2022-12-03T13:24:29.945Z,18.95
2022-12-03T13:26:57.660Z,17.83
2022-12-03T13:29:27.135Z,15.05
2022-12-03T13:31:59.918Z,18.60
2022-12-03T13:34:35.887Z,16.50
2022-12-03T13:37:06.295Z,17.52
2022-12-03T13:39:36.385Z,16.13
2022-12-03T13:42:45.709Z,17.88
2022-12-03T13:45:15.138Z,15.70
2022-12-03T13:47:44.654Z,15.85
2022-12-03T13:50:36.040Z,15.43
2022-12-03T13:53:12.777Z,15.30
2022-12-03T13:55:43.100Z,17.42
2022-12-03T13:58:09.754Z,17.45
2022-12-03T14:00:36.362Z,15.50
2022-12-03T14:03:03.271Z,17.98
2022-12-03T14:05:30.001Z,19.38
2022-12-03T14:08:02.131Z,20.88
2022-12-03T14:10:29.727Z,19.20
2022-12-03T14:12:57.151Z,17.48
2022-12-03T14:15:24.970Z,16.95
2022-12-03T14:17:52.051Z,15.50
2022-12-03T14:20:19.477Z,18.80
2022-12-03T14:22:46.054Z,18.23
2022-12-03T14:25:12.742Z,16.20
2022-12-03T14:27:39.458Z,15.88
2022-12-03T14:30:06.728Z,17.20
2022-12-03T14:32:33.321Z,18.35
2022-12-03T14:35:02.780Z,18.08
2022-12-03T14:37:31.951Z,18.98
2022-12-03T14:39:58.757Z,18.17
2022-12-03T14:42:25.406Z,17.65
2022-12-03T14:44:52.206Z,17.90
2022-12-03T14:47:22.506Z,17.60
2022-12-03T14:49:50.472Z,19.75
2022-12-03T14:52:18.228Z,21.48
2022-12-03T14:54:45.261Z,16.08
2022-12-03T14:57:13.731Z,18.08
2022-12-03T14:59:41.733Z,17.73
2022-12-03T15:02:09.655Z,17.98
2022-12-03T15:04:36.723Z,17.90
2022-12-03T15:07:03.778Z,16.65
2022-12-03T15:09:30.411Z,14.55
2022-12-03T15:11:57.047Z,17.20
2022-12-03T15:14:23.748Z,17.95
2022-12-03T15:16:51.549Z,14.85
2022-12-03T15:19:18.243Z,16.95
2022-12-03T15:21:44.824Z,16.65
2022-12-03T15:24:11.560Z,18.08
2022-12-03T15:26:38.148Z,15.27
2022-12-03T15:29:05.852Z,18.25
2022-12-03T15:31:32.601Z,16.35
2022-12-03T15:33:59.354Z,14.48
2022-12-03T15:36:26.016Z,16.02
2022-12-03T15:38:52.697Z,17.08
2022-12-03T15:41:24.335Z,16.88
2022-12-03T15:43:55.222Z,16.20
2022-12-03T15:46:22.518Z,15.05
2022-12-03T15:48:49.330Z,16.23
2022-12-03T15:51:16.630Z,15.85
2022-12-03T15:53:43.298Z,15.35
2022-12-03T15:56:12.003Z,16.58
2022-12-03T15:58:39.508Z,15.00
2022-12-03T16:01:06.554Z,19.27
2022-12-03T16:03:34.690Z,16.90
2022-12-03T16:06:02.555Z,15.27
2022-12-03T16:08:29.126Z,15.25
2022-12-03T16:10:55.771Z,15.00
2022-12-03T16:13:22.361Z,15.55
2022-12-03T16:15:49.116Z,15.32
2022-12-03T16:18:17.776Z,13.88
2022-12-03T16:20:44.529Z,15.27
2022-12-03T16:23:11.424Z,15.18
2022-12-03T16:25:38.171Z,11.95
2022-12-03T16:28:04.787Z,17.55
2022-12-03T16:30:32.325Z,15.30
2022-12-03T16:32:59.008Z,15.77
2022-12-03T16:35:25.743Z,13.98
2022-12-03T16:37:52.423Z,12.80
2022-12-03T16:40:21.076Z,13.65
2022-12-03T16:42:47.661Z,14.15
2022-12-03T16:45:34.055Z,17.73
2022-12-03T16:48:01.918Z,15.73
2022-12-03T16:50:30.305Z,13.50
2022-12-03T16:52:57.882Z,16.63
2022-12-03T16:55:25.047Z,13.88
2022-12-03T16:57:52.634Z,14.77
2022-12-03T17:00:21.828Z,16.20
2022-12-03T17:02:48.804Z,16.45
2022-12-03T17:05:16.512Z,16.25
2022-12-03T17:07:43.281Z,16.83
2022-12-03T17:10:10.467Z,15.68
2022-12-03T17:13:07.137Z,15.10
2022-12-03T17:15:25.676Z,16.53
2022-12-03T17:17:52.242Z,16.65
2022-12-03T17:20:19.166Z,14.20
2022-12-03T17:22:46.415Z,16.05
2022-12-03T17:25:13.174Z,14.70
2022-12-03T17:27:45.150Z,14.98
2022-12-03T17:30:13.085Z,17.42
2022-12-03T17:32:39.830Z,16.08
2022-12-03T17:35:07.118Z,18.75
2022-12-03T17:37:34.109Z,17.15
2022-12-03T17:40:03.729Z,13.60
2022-12-03T17:42:30.393Z,14.98
2022-12-03T17:44:57.167Z,15.95
2022-12-03T17:47:23.859Z,15.50
2022-12-03T17:49:50.380Z,16.40
2022-12-03T17:52:17.002Z,15.40
2022-12-03T17:55:09.005Z,13.57
2022-12-03T17:57:30.429Z,15.23
2022-12-03T17:59:57.404Z,15.15
2022-12-03T18:02:24.046Z,15.30
2022-12-03T18:04:50.624Z,15.57
2022-12-03T18:07:17.339Z,16.17
2022-12-03T18:09:43.954Z,16.95
2022-12-03T18:12:10.644Z,15.30
2022-12-03T18:14:37.282Z,17.02
2022-12-03T18:17:03.928Z,15.68
2022-12-03T18:19:30.539Z,16.15
2022-12-03T18:21:57.254Z,15.82
2022-12-03T18:24:24.458Z,16.50
2022-12-03T18:26:51.154Z,16.92
2022-12-03T18:29:18.011Z,17.58
2022-12-03T18:31:44.880Z,15.60
2022-12-03T18:34:11.590Z,19.08
2022-12-03T18:36:38.488Z,16.05
2022-12-03T18:39:09.054Z,17.42
2022-12-03T18:41:36.572Z,18.20
2022-12-03T18:44:09.196Z,19.08
2022-12-03T18:46:52.884Z,19.08
2022-12-03T18:49:20.463Z,18.90
2022-12-03T18:51:48.316Z,17.08
2022-12-03T18:54:15.465Z,16.83
2022-12-03T18:56:42.097Z,19.65
2022-12-03T18:59:09.421Z,18.30
2022-12-03T19:01:36.122Z,19.13
2022-12-03T19:04:02.890Z,20.08
2022-12-03T19:06:30.527Z,18.45
2022-12-03T19:08:57.785Z,20.58
2022-12-03T19:11:24.954Z,17.35
2022-12-03T19:13:52.115Z,17.35
2022-12-03T19:16:20.090Z,15.80
2022-12-03T19:18:46.701Z,18.42
2022-12-03T19:21:15.322Z,17.75
2022-12-03T19:23:58.904Z,16.38
2022-12-03T19:26:29.546Z,18.80
2022-12-03T19:28:56.220Z,19.05
2022-12-03T19:31:24.085Z,18.55
2022-12-03T19:33:51.927Z,16.30
2022-12-03T19:36:24.312Z,19.63
2022-12-03T19:38:56.920Z,17.63
2022-12-03T19:41:27.284Z,19.30
2022-12-03T19:43:55.677Z,18.60
2022-12-03T19:46:24.924Z,19.83
2022-12-03T19:48:51.797Z,19.98
2022-12-03T19:51:35.420Z,18.95
2022-12-03T19:54:07.216Z,16.27
2022-12-03T19:56:34.697Z,18.60
2022-12-03T19:59:01.363Z,20.27
2022-12-03T20:01:31.159Z,19.80
2022-12-03T20:04:00.049Z,18.35
2022-12-03T20:06:30.737Z,20.23
2022-12-03T20:08:59.602Z,18.50
2022-12-03T20:11:29.243Z,19.83
2022-12-03T20:13:59.251Z,21.42
2022-12-03T20:16:26.795Z,17.15
2022-12-03T20:18:57.864Z,17.80
2022-12-03T20:21:24.821Z,18.05
2022-12-03T20:23:51.397Z,19.60
2022-12-03T20:26:20.373Z,20.33
2022-12-03T20:28:48.139Z,20.90
2022-12-03T20:31:20.782Z,19.30
2022-12-03T20:33:50.100Z,17.90
2022-12-03T20:36:20.849Z,21.90
2022-12-03T20:38:47.604Z,20.10
2022-12-03T20:41:21.100Z,20.63
2022-12-03T20:43:48.048Z,17.48
2022-12-03T20:46:16.101Z,19.30
2022-12-03T20:48:43.859Z,20.05
2022-12-03T20:51:13.757Z,23.35
2022-12-03T20:53:40.915Z,18.77
2022-12-03T20:56:09.766Z,21.60
2022-12-03T20:58:37.159Z,21.08
2022-12-03T21:01:18.829Z,25.17
2022-12-03T21:03:46.625Z,21.33
2022-12-03T21:06:16.020Z,20.92
2022-12-03T21:08:43.744Z,21.08
2022-12-03T21:11:13.270Z,19.67
2022-12-03T21:13:41.836Z,18.60
2022-12-03T21:16:11.059Z,19.95
2022-12-03T21:18:38.313Z,21.00
2022-12-03T21:21:05.938Z,19.45
2022-12-03T21:23:33.594Z,19.42
2022-12-03T21:26:12.552Z,17.63
2022-12-03T21:28:40.577Z,17.75
2022-12-03T21:31:09.944Z,21.92
2022-12-03T21:33:37.118Z,22.05
2022-12-03T21:36:06.114Z,23.08
2022-12-03T21:38:33.832Z,19.75
2022-12-03T21:41:02.002Z,20.35
2022-12-03T21:43:29.501Z,20.60
2022-12-03T21:45:58.533Z,21.88
2022-12-03T21:48:25.202Z,18.73
2022-12-03T21:51:00.439Z,18.67
2022-12-03T21:53:28.106Z,19.70
2022-12-03T21:55:54.925Z,22.48
2022-12-03T21:58:21.584Z,21.77
2022-12-03T22:00:48.211Z,19.90
2022-12-03T22:03:14.941Z,19.98
2022-12-03T22:05:41.605Z,18.60
2022-12-03T22:08:09.272Z,19.85
2022-12-03T22:10:36.389Z,18.77
2022-12-03T22:13:03.096Z,19.13
2022-12-03T22:15:29.871Z,21.02
2022-12-03T22:17:56.564Z,21.70
2022-12-03T22:20:23.433Z,20.00
2022-12-03T22:22:51.023Z,20.60
2022-12-03T22:25:17.671Z,25.70
2022-12-03T22:27:44.367Z,21.77
2022-12-03T22:30:12.530Z,21.17
2022-12-03T22:32:39.141Z,21.33
2022-12-03T22:35:06.039Z,22.63
2022-12-03T22:37:33.024Z,22.02
2022-12-03T22:39:59.590Z,18.73
2022-12-03T22:42:26.197Z,20.60
2022-12-03T22:44:53.280Z,19.40
2022-12-03T22:47:19.864Z,21.65
2022-12-03T22:49:46.508Z,18.08
2022-12-03T22:52:13.305Z,20.70
2022-12-03T22:54:39.925Z,21.95
2022-12-03T22:57:06.665Z,22.17
2022-12-03T22:59:33.456Z,20.55
2022-12-03T23:02:00.086Z,22.42
2022-12-03T23:04:26.856Z,21.73
2022-12-03T23:06:53.769Z,20.95
2022-12-03T23:09:21.048Z,21.98
2022-12-03T23:11:47.747Z,21.80
2022-12-03T23:14:14.937Z,21.38
2022-12-03T23:16:41.621Z,22.95
2022-12-03T23:19:09.229Z,20.90
2022-12-03T23:21:36.125Z,22.63
2022-12-03T23:24:04.531Z,20.55
2022-12-03T23:26:35.253Z,18.25
2022-12-03T23:29:01.882Z,20.50
2022-12-03T23:31:30.990Z,21.48
2022-12-03T23:33:58.801Z,20.80
2022-12-03T23:36:28.048Z,22.15
2022-12-03T23:38:55.022Z,20.90
2022-12-03T23:41:23.275Z,20.77
2022-12-03T23:43:50.308Z,20.63
2022-12-03T23:46:23.242Z,22.83
2022-12-03T23:48:51.122Z,20.35
2022-12-03T23:51:21.869Z,23.02
2022-12-03T23:53:48.541Z,20.08
2022-12-03T23:56:17.838Z,22.45
2022-12-03T23:58:45.315Z,21.23
